sensor_id;sensor_type;location;lat;lon;timestamp;temperature;humidity
66328;DHT22;53133;52.862;6.602;2023-04-03T00:01:34;4.70;99.90
66328;DHT22;53133;52.862;6.602;2023-04-03T00:04:00;4.70;99.90
66328;DHT22;53133;52.862;6.602;2023-04-03T00:06:26;4.70;99.90
66328;DHT22;53133;52.862;6.602;2023-04-03T00:08:52;4.60;99.90
66328;DHT22;53133;52.862;6.602;2023-04-03T00:11:18;4.60;99.90
66328;DHT22;53133;52.862;6.602;2023-04-03T00:13:44;4.70;99.90
66328;DHT22;53133;52.862;6.602;2023-04-03T00:16:11;4.70;99.90
66328;DHT22;53133;52.862;6.602;2023-04-03T00:18:37;4.60;99.90
66328;DHT22;53133;52.862;6.602;2023-04-03T00:21:04;4.60;99.90
66328;DHT22;53133;52.862;6.602;2023-04-03T00:23:30;4.60;99.90
66328;DHT22;53133;52.862;6.602;2023-04-03T00:25:56;4.60;99.90
66328;DHT22;53133;52.862;6.602;2023-04-03T00:28:21;4.60;99.90
66328;DHT22;53133;52.862;6.602;2023-04-03T00:30:50;4.60;99.90
66328;DHT22;53133;52.862;6.602;2023-04-03T00:33:16;4.60;99.90
66328;DHT22;53133;52.862;6.602;2023-04-03T00:35:42;4.60;99.90
66328;DHT22;53133;52.862;6.602;2023-04-03T00:38:08;4.60;99.90
66328;DHT22;53133;52.862;6.602;2023-04-03T00:40:39;4.60;99.90
66328;DHT22;53133;52.862;6.602;2023-04-03T00:43:19;4.60;99.90
66328;DHT22;53133;52.862;6.602;2023-04-03T00:45:53;4.60;99.90
66328;DHT22;53133;52.862;6.602;2023-04-03T00:48:29;4.50;99.90
66328;DHT22;53133;52.862;6.602;2023-04-03T00:50:56;4.50;99.90
66328;DHT22;53133;52.862;6.602;2023-04-03T00:53:31;4.50;99.90
66328;DHT22;53133;52.862;6.602;2023-04-03T00:55:57;4.50;99.90
66328;DHT22;53133;52.862;6.602;2023-04-03T00:58:33;4.40;99.90
66328;DHT22;53133;52.862;6.602;2023-04-03T01:01:00;4.40;99.90
66328;DHT22;53133;52.862;6.602;2023-04-03T01:03:29;4.40;99.90
66328;DHT22;53133;52.862;6.602;2023-04-03T01:05:57;4.40;99.90
66328;DHT22;53133;52.862;6.602;2023-04-03T01:08:23;4.30;99.90
66328;DHT22;53133;52.862;6.602;2023-04-03T01:10:49;4.30;99.90
66328;DHT22;53133;52.862;6.602;2023-04-03T01:13:30;4.30;99.90
66328;DHT22;53133;52.862;6.602;2023-04-03T01:15:56;4.30;99.90
66328;DHT22;53133;52.862;6.602;2023-04-03T01:18:25;4.30;99.90
66328;DHT22;53133;52.862;6.602;2023-04-03T01:26:07;4.20;99.90
66328;DHT22;53133;52.862;6.602;2023-04-03T01:28:35;4.20;99.90
66328;DHT22;53133;52.862;6.602;2023-04-03T01:31:22;4.10;99.90
66328;DHT22;53133;52.862;6.602;2023-04-03T01:33:49;4.20;99.90
66328;DHT22;53133;52.862;6.602;2023-04-03T01:36:21;4.10;99.90
66328;DHT22;53133;52.862;6.602;2023-04-03T01:38:48;4.00;99.90
66328;DHT22;53133;52.862;6.602;2023-04-03T01:41:13;4.00;99.90
66328;DHT22;53133;52.862;6.602;2023-04-03T01:43:39;4.00;99.90
66328;DHT22;53133;52.862;6.602;2023-04-03T01:46:06;3.90;99.90
66328;DHT22;53133;52.862;6.602;2023-04-03T01:48:31;3.90;99.90
66328;DHT22;53133;52.862;6.602;2023-04-03T01:50:57;3.90;99.90
66328;DHT22;53133;52.862;6.602;2023-04-03T01:53:22;3.80;99.90
66328;DHT22;53133;52.862;6.602;2023-04-03T01:55:48;3.80;99.90
66328;DHT22;53133;52.862;6.602;2023-04-03T01:58:14;3.80;99.90
66328;DHT22;53133;52.862;6.602;2023-04-03T02:00:39;3.80;99.90
66328;DHT22;53133;52.862;6.602;2023-04-03T02:03:05;3.80;99.90
66328;DHT22;53133;52.862;6.602;2023-04-03T02:05:30;3.80;99.90
66328;DHT22;53133;52.862;6.602;2023-04-03T02:07:56;3.70;99.90
66328;DHT22;53133;52.862;6.602;2023-04-03T02:10:22;3.70;99.90
66328;DHT22;53133;52.862;6.602;2023-04-03T02:12:47;3.70;99.90
66328;DHT22;53133;52.862;6.602;2023-04-03T02:15:13;3.60;99.90
66328;DHT22;53133;52.862;6.602;2023-04-03T02:17:38;3.70;99.90
66328;DHT22;53133;52.862;6.602;2023-04-03T02:20:04;3.70;99.90
66328;DHT22;53133;52.862;6.602;2023-04-03T02:22:31;3.70;99.90
66328;DHT22;53133;52.862;6.602;2023-04-03T02:24:56;3.70;99.90
66328;DHT22;53133;52.862;6.602;2023-04-03T02:27:22;3.70;99.90
66328;DHT22;53133;52.862;6.602;2023-04-03T02:29:47;3.60;99.90
66328;DHT22;53133;52.862;6.602;2023-04-03T02:32:13;3.70;99.90
66328;DHT22;53133;52.862;6.602;2023-04-03T02:34:38;3.60;99.90
66328;DHT22;53133;52.862;6.602;2023-04-03T02:37:04;3.60;99.90
66328;DHT22;53133;52.862;6.602;2023-04-03T02:39:30;3.50;99.90
66328;DHT22;53133;52.862;6.602;2023-04-03T02:41:56;3.50;99.90
66328;DHT22;53133;52.862;6.602;2023-04-03T02:44:21;3.50;99.90
66328;DHT22;53133;52.862;6.602;2023-04-03T02:46:49;3.50;99.90
66328;DHT22;53133;52.862;6.602;2023-04-03T02:49:14;3.50;99.90
66328;DHT22;53133;52.862;6.602;2023-04-03T02:51:41;3.50;99.90
66328;DHT22;53133;52.862;6.602;2023-04-03T02:54:06;3.40;99.90
66328;DHT22;53133;52.862;6.602;2023-04-03T02:56:32;3.30;99.90
66328;DHT22;53133;52.862;6.602;2023-04-03T02:58:58;3.30;99.90
66328;DHT22;53133;52.862;6.602;2023-04-03T03:01:23;3.30;99.90
66328;DHT22;53133;52.862;6.602;2023-04-03T03:03:49;3.30;99.90
66328;DHT22;53133;52.862;6.602;2023-04-03T03:06:16;3.20;99.90
66328;DHT22;53133;52.862;6.602;2023-04-03T03:08:43;3.20;99.90
66328;DHT22;53133;52.862;6.602;2023-04-03T03:11:09;3.20;99.90
66328;DHT22;53133;52.862;6.602;2023-04-03T03:13:35;3.20;99.90
66328;DHT22;53133;52.862;6.602;2023-04-03T03:16:01;3.10;99.90
66328;DHT22;53133;52.862;6.602;2023-04-03T03:18:27;3.10;99.90
66328;DHT22;53133;52.862;6.602;2023-04-03T03:20:55;3.10;99.90
66328;DHT22;53133;52.862;6.602;2023-04-03T03:23:22;3.10;99.90
66328;DHT22;53133;52.862;6.602;2023-04-03T03:25:47;3.00;99.90
66328;DHT22;53133;52.862;6.602;2023-04-03T03:28:13;3.10;99.90
66328;DHT22;53133;52.862;6.602;2023-04-03T03:30:39;3.00;99.90
66328;DHT22;53133;52.862;6.602;2023-04-03T03:33:04;3.00;99.90
66328;DHT22;53133;52.862;6.602;2023-04-03T03:35:30;3.00;99.90
66328;DHT22;53133;52.862;6.602;2023-04-03T03:37:56;2.90;99.90
66328;DHT22;53133;52.862;6.602;2023-04-03T03:40:21;2.90;99.90
66328;DHT22;53133;52.862;6.602;2023-04-03T03:42:47;2.90;99.90
66328;DHT22;53133;52.862;6.602;2023-04-03T03:45:13;2.90;99.90
66328;DHT22;53133;52.862;6.602;2023-04-03T03:47:38;2.80;99.90
66328;DHT22;53133;52.862;6.602;2023-04-03T03:50:05;2.80;99.90
66328;DHT22;53133;52.862;6.602;2023-04-03T03:52:31;2.80;99.90
66328;DHT22;53133;52.862;6.602;2023-04-03T03:54:57;2.70;99.90
66328;DHT22;53133;52.862;6.602;2023-04-03T03:57:22;2.60;99.90
66328;DHT22;53133;52.862;6.602;2023-04-03T03:59:48;2.60;99.90
66328;DHT22;53133;52.862;6.602;2023-04-03T04:02:14;2.60;99.90
66328;DHT22;53133;52.862;6.602;2023-04-03T04:04:40;2.60;99.90
66328;DHT22;53133;52.862;6.602;2023-04-03T04:07:05;2.50;99.90
66328;DHT22;53133;52.862;6.602;2023-04-03T04:09:31;2.50;99.90
66328;DHT22;53133;52.862;6.602;2023-04-03T04:11:56;2.50;99.90
66328;DHT22;53133;52.862;6.602;2023-04-03T04:14:22;2.40;99.90
66328;DHT22;53133;52.862;6.602;2023-04-03T04:16:48;2.40;99.90
66328;DHT22;53133;52.862;6.602;2023-04-03T04:19:14;2.40;99.90
66328;DHT22;53133;52.862;6.602;2023-04-03T04:21:40;2.30;99.90
66328;DHT22;53133;52.862;6.602;2023-04-03T04:24:07;2.30;99.90
66328;DHT22;53133;52.862;6.602;2023-04-03T04:26:33;2.30;99.90
66328;DHT22;53133;52.862;6.602;2023-04-03T04:28:58;2.30;99.90
66328;DHT22;53133;52.862;6.602;2023-04-03T04:31:24;2.30;99.90
66328;DHT22;53133;52.862;6.602;2023-04-03T04:33:49;2.30;99.90
66328;DHT22;53133;52.862;6.602;2023-04-03T04:36:15;2.30;99.90
66328;DHT22;53133;52.862;6.602;2023-04-03T04:38:41;2.20;99.90
66328;DHT22;53133;52.862;6.602;2023-04-03T04:41:07;2.20;99.90
66328;DHT22;53133;52.862;6.602;2023-04-03T04:43:33;2.20;99.90
66328;DHT22;53133;52.862;6.602;2023-04-03T04:46:09;2.20;99.90
66328;DHT22;53133;52.862;6.602;2023-04-03T04:48:37;2.20;99.90
66328;DHT22;53133;52.862;6.602;2023-04-03T04:51:03;2.20;99.90
66328;DHT22;53133;52.862;6.602;2023-04-03T04:53:29;2.20;99.90
66328;DHT22;53133;52.862;6.602;2023-04-03T04:55:55;2.20;99.90
66328;DHT22;53133;52.862;6.602;2023-04-03T04:58:21;2.20;99.90
66328;DHT22;53133;52.862;6.602;2023-04-03T05:00:47;2.20;99.90
66328;DHT22;53133;52.862;6.602;2023-04-03T05:03:12;2.20;99.90
66328;DHT22;53133;52.862;6.602;2023-04-03T05:05:38;2.20;99.90
66328;DHT22;53133;52.862;6.602;2023-04-03T05:08:05;2.20;99.90
66328;DHT22;53133;52.862;6.602;2023-04-03T05:10:31;2.20;99.90
66328;DHT22;53133;52.862;6.602;2023-04-03T05:12:57;2.20;99.90
66328;DHT22;53133;52.862;6.602;2023-04-03T05:15:23;2.20;99.90
66328;DHT22;53133;52.862;6.602;2023-04-03T05:17:49;2.20;99.90
66328;DHT22;53133;52.862;6.602;2023-04-03T05:20:14;2.20;99.90
66328;DHT22;53133;52.862;6.602;2023-04-03T05:22:40;2.20;99.90
66328;DHT22;53133;52.862;6.602;2023-04-03T05:25:06;2.20;99.90
66328;DHT22;53133;52.862;6.602;2023-04-03T05:27:32;2.10;99.90
66328;DHT22;53133;52.862;6.602;2023-04-03T05:29:57;2.10;99.90
66328;DHT22;53133;52.862;6.602;2023-04-03T05:32:24;2.20;99.90
66328;DHT22;53133;52.862;6.602;2023-04-03T05:34:51;2.10;99.90
66328;DHT22;53133;52.862;6.602;2023-04-03T05:37:17;2.10;99.90
66328;DHT22;53133;52.862;6.602;2023-04-03T05:39:43;2.10;99.90
66328;DHT22;53133;52.862;6.602;2023-04-03T05:42:09;2.10;99.90
66328;DHT22;53133;52.862;6.602;2023-04-03T05:44:34;2.10;99.90
66328;DHT22;53133;52.862;6.602;2023-04-03T05:47:00;2.10;99.90
66328;DHT22;53133;52.862;6.602;2023-04-03T05:49:26;2.20;99.90
66328;DHT22;53133;52.862;6.602;2023-04-03T05:51:52;2.20;99.90
66328;DHT22;53133;52.862;6.602;2023-04-03T05:54:18;2.20;99.90
66328;DHT22;53133;52.862;6.602;2023-04-03T05:56:44;2.20;99.90
66328;DHT22;53133;52.862;6.602;2023-04-03T05:59:10;2.20;99.90
66328;DHT22;53133;52.862;6.602;2023-04-03T06:01:36;2.30;99.90
66328;DHT22;53133;52.862;6.602;2023-04-03T06:04:02;2.30;99.90
66328;DHT22;53133;52.862;6.602;2023-04-03T06:06:51;2.30;99.90
66328;DHT22;53133;52.862;6.602;2023-04-03T06:09:18;2.40;99.90
66328;DHT22;53133;52.862;6.602;2023-04-03T06:11:44;2.40;99.90
66328;DHT22;53133;52.862;6.602;2023-04-03T06:14:10;2.40;99.90
66328;DHT22;53133;52.862;6.602;2023-04-03T06:16:36;2.40;99.90
66328;DHT22;53133;52.862;6.602;2023-04-03T06:19:02;2.40;99.90
66328;DHT22;53133;52.862;6.602;2023-04-03T06:21:29;2.50;99.90
66328;DHT22;53133;52.862;6.602;2023-04-03T06:23:55;2.50;99.90
66328;DHT22;53133;52.862;6.602;2023-04-03T06:26:21;2.50;99.90
66328;DHT22;53133;52.862;6.602;2023-04-03T06:28:47;2.50;99.90
66328;DHT22;53133;52.862;6.602;2023-04-03T06:31:13;2.60;99.90
66328;DHT22;53133;52.862;6.602;2023-04-03T06:33:39;2.60;99.90
66328;DHT22;53133;52.862;6.602;2023-04-03T06:36:05;2.60;99.90
66328;DHT22;53133;52.862;6.602;2023-04-03T06:38:32;2.70;99.90
66328;DHT22;53133;52.862;6.602;2023-04-03T06:40:58;2.70;99.90
66328;DHT22;53133;52.862;6.602;2023-04-03T06:43:24;2.70;99.90
66328;DHT22;53133;52.862;6.602;2023-04-03T06:45:50;2.80;99.90
66328;DHT22;53133;52.862;6.602;2023-04-03T06:48:16;2.80;99.90
66328;DHT22;53133;52.862;6.602;2023-04-03T06:50:41;2.80;99.90
66328;DHT22;53133;52.862;6.602;2023-04-03T06:53:07;2.80;99.90
66328;DHT22;53133;52.862;6.602;2023-04-03T06:55:33;2.90;99.90
66328;DHT22;53133;52.862;6.602;2023-04-03T06:57:59;2.90;99.90
66328;DHT22;53133;52.862;6.602;2023-04-03T07:00:24;3.00;99.90
66328;DHT22;53133;52.862;6.602;2023-04-03T07:02:50;3.00;99.90
66328;DHT22;53133;52.862;6.602;2023-04-03T07:05:17;3.00;99.90
66328;DHT22;53133;52.862;6.602;2023-04-03T07:07:42;3.10;99.90
66328;DHT22;53133;52.862;6.602;2023-04-03T07:10:09;3.10;99.90
66328;DHT22;53133;52.862;6.602;2023-04-03T07:12:35;3.10;99.90
66328;DHT22;53133;52.862;6.602;2023-04-03T07:15:01;3.20;99.90
66328;DHT22;53133;52.862;6.602;2023-04-03T07:17:27;3.20;99.90
66328;DHT22;53133;52.862;6.602;2023-04-03T07:19:52;3.20;99.90
66328;DHT22;53133;52.862;6.602;2023-04-03T07:22:18;3.20;99.90
66328;DHT22;53133;52.862;6.602;2023-04-03T07:24:44;3.20;99.90
66328;DHT22;53133;52.862;6.602;2023-04-03T07:27:09;3.30;99.90
66328;DHT22;53133;52.862;6.602;2023-04-03T07:29:38;3.40;99.90
66328;DHT22;53133;52.862;6.602;2023-04-03T07:32:05;3.40;99.90
66328;DHT22;53133;52.862;6.602;2023-04-03T07:34:31;3.50;99.90
66328;DHT22;53133;52.862;6.602;2023-04-03T07:36:58;3.50;99.90
66328;DHT22;53133;52.862;6.602;2023-04-03T07:39:23;3.50;99.90
66328;DHT22;53133;52.862;6.602;2023-04-03T07:41:49;3.60;99.90
66328;DHT22;53133;52.862;6.602;2023-04-03T07:44:15;3.60;99.90
66328;DHT22;53133;52.862;6.602;2023-04-03T07:46:40;3.60;99.90
66328;DHT22;53133;52.862;6.602;2023-04-03T07:49:06;3.70;99.90
66328;DHT22;53133;52.862;6.602;2023-04-03T07:51:32;3.70;99.90
66328;DHT22;53133;52.862;6.602;2023-04-03T07:53:58;3.70;99.90
66328;DHT22;53133;52.862;6.602;2023-04-03T07:56:24;3.80;99.90
66328;DHT22;53133;52.862;6.602;2023-04-03T07:58:50;3.80;99.90
66328;DHT22;53133;52.862;6.602;2023-04-03T08:01:16;3.90;99.90
66328;DHT22;53133;52.862;6.602;2023-04-03T08:03:42;3.90;99.90
66328;DHT22;53133;52.862;6.602;2023-04-03T08:06:08;3.90;99.90
66328;DHT22;53133;52.862;6.602;2023-04-03T08:08:34;4.00;99.90
66328;DHT22;53133;52.862;6.602;2023-04-03T08:11:01;4.00;99.90
66328;DHT22;53133;52.862;6.602;2023-04-03T08:13:28;4.10;99.90
66328;DHT22;53133;52.862;6.602;2023-04-03T08:15:55;4.10;99.90
66328;DHT22;53133;52.862;6.602;2023-04-03T08:18:23;4.20;99.90
66328;DHT22;53133;52.862;6.602;2023-04-03T08:20:50;4.20;99.80
66328;DHT22;53133;52.862;6.602;2023-04-03T08:23:17;4.20;99.90
66328;DHT22;53133;52.862;6.602;2023-04-03T08:25:43;4.30;99.70
66328;DHT22;53133;52.862;6.602;2023-04-03T08:28:09;4.30;97.70
66328;DHT22;53133;52.862;6.602;2023-04-03T08:30:38;4.40;96.90
66328;DHT22;53133;52.862;6.602;2023-04-03T08:33:03;4.40;94.00
66328;DHT22;53133;52.862;6.602;2023-04-03T08:35:29;4.50;94.00
66328;DHT22;53133;52.862;6.602;2023-04-03T08:37:55;4.50;94.00
66328;DHT22;53133;52.862;6.602;2023-04-03T08:40:22;4.60;93.90
66328;DHT22;53133;52.862;6.602;2023-04-03T08:45:43;4.70;92.10
66328;DHT22;53133;52.862;6.602;2023-04-03T08:48:20;4.70;92.20
66328;DHT22;53133;52.862;6.602;2023-04-03T08:50:50;4.80;88.50
66328;DHT22;53133;52.862;6.602;2023-04-03T08:53:20;4.80;88.60
66328;DHT22;53133;52.862;6.602;2023-04-03T08:55:49;4.90;89.00
66328;DHT22;53133;52.862;6.602;2023-04-03T08:58:29;5.00;86.70
66328;DHT22;53133;52.862;6.602;2023-04-03T09:01:01;5.00;86.90
66328;DHT22;53133;52.862;6.602;2023-04-03T09:03:31;5.00;85.40
66328;DHT22;53133;52.862;6.602;2023-04-03T09:06:25;5.10;84.90
66328;DHT22;53133;52.862;6.602;2023-04-03T09:09:02;5.10;86.00
66328;DHT22;53133;52.862;6.602;2023-04-03T09:22:20;5.40;77.80
66328;DHT22;53133;52.862;6.602;2023-04-03T09:24:52;5.50;76.50
66328;DHT22;53133;52.862;6.602;2023-04-03T09:27:21;5.60;74.70
66328;DHT22;53133;52.862;6.602;2023-04-03T09:29:47;5.60;74.50
66328;DHT22;53133;52.862;6.602;2023-04-03T09:32:33;5.70;74.60
66328;DHT22;53133;52.862;6.602;2023-04-03T09:35:02;5.80;74.10
66328;DHT22;53133;52.862;6.602;2023-04-03T09:37:45;5.90;72.40
66328;DHT22;53133;52.862;6.602;2023-04-03T09:40:28;5.90;70.50
66328;DHT22;53133;52.862;6.602;2023-04-03T09:42:59;6.00;69.80
66328;DHT22;53133;52.862;6.602;2023-04-03T09:45:28;6.00;70.40
66328;DHT22;53133;52.862;6.602;2023-04-03T09:53:47;6.20;66.30
66328;DHT22;53133;52.862;6.602;2023-04-03T09:56:19;6.30;63.00
66328;DHT22;53133;52.862;6.602;2023-04-03T09:58:52;6.40;62.90
66328;DHT22;53133;52.862;6.602;2023-04-03T10:01:22;6.40;63.30
66328;DHT22;53133;52.862;6.602;2023-04-03T10:04:23;6.40;63.80
66328;DHT22;53133;52.862;6.602;2023-04-03T10:06:53;6.50;62.50
66328;DHT22;53133;52.862;6.602;2023-04-03T10:14:23;6.70;63.60
66328;DHT22;53133;52.862;6.602;2023-04-03T10:19:42;6.80;62.10
66328;DHT22;53133;52.862;6.602;2023-04-03T10:22:28;6.80;62.90
66328;DHT22;53133;52.862;6.602;2023-04-03T10:27:54;6.90;62.30
66328;DHT22;53133;52.862;6.602;2023-04-03T10:33:11;7.10;63.30
66328;DHT22;53133;52.862;6.602;2023-04-03T10:41:42;7.30;61.10
66328;DHT22;53133;52.862;6.602;2023-04-03T10:44:31;7.30;63.30
66328;DHT22;53133;52.862;6.602;2023-04-03T10:47:21;7.40;62.70
66328;DHT22;53133;52.862;6.602;2023-04-03T10:50:01;7.40;62.10
66328;DHT22;53133;52.862;6.602;2023-04-03T10:58:01;7.50;61.50
66328;DHT22;53133;52.862;6.602;2023-04-03T11:00:38;7.60;61.40
66328;DHT22;53133;52.862;6.602;2023-04-03T11:03:11;7.60;60.90
66328;DHT22;53133;52.862;6.602;2023-04-03T11:05:47;7.70;59.70
66328;DHT22;53133;52.862;6.602;2023-04-03T11:11:35;7.70;58.70
66328;DHT22;53133;52.862;6.602;2023-04-03T11:16:33;7.80;59.60
66328;DHT22;53133;52.862;6.602;2023-04-03T11:19:04;7.90;59.60
66328;DHT22;53133;52.862;6.602;2023-04-03T11:21:44;7.90;59.00
66328;DHT22;53133;52.862;6.602;2023-04-03T11:24:21;8.00;59.00
66328;DHT22;53133;52.862;6.602;2023-04-03T11:26:49;8.00;58.80
66328;DHT22;53133;52.862;6.602;2023-04-03T11:29:22;8.00;58.60
66328;DHT22;53133;52.862;6.602;2023-04-03T11:34:40;8.10;57.10
66328;DHT22;53133;52.862;6.602;2023-04-03T11:37:35;8.10;57.50
66328;DHT22;53133;52.862;6.602;2023-04-03T11:40:28;8.10;56.20
66328;DHT22;53133;52.862;6.602;2023-04-03T11:43:02;8.20;58.40
66328;DHT22;53133;52.862;6.602;2023-04-03T11:50:45;8.30;57.50
66328;DHT22;53133;52.862;6.602;2023-04-03T11:58:17;8.40;56.50
66328;DHT22;53133;52.862;6.602;2023-04-03T12:03:32;8.50;57.20
66328;DHT22;53133;52.862;6.602;2023-04-03T12:14:03;8.70;56.80
66328;DHT22;53133;52.862;6.602;2023-04-03T12:19:29;8.70;57.10
66328;DHT22;53133;52.862;6.602;2023-04-03T12:24:31;8.70;56.20
66328;DHT22;53133;52.862;6.602;2023-04-03T12:43:33;9.00;55.20
66328;DHT22;53133;52.862;6.602;2023-04-03T12:48:32;9.00;56.10
66328;DHT22;53133;52.862;6.602;2023-04-03T12:50:59;9.10;56.50
66328;DHT22;53133;52.862;6.602;2023-04-03T12:53:28;9.10;55.50
66328;DHT22;53133;52.862;6.602;2023-04-03T12:56:28;9.10;56.00
66328;DHT22;53133;52.862;6.602;2023-04-03T12:58:56;9.20;55.40
66328;DHT22;53133;52.862;6.602;2023-04-03T13:01:37;9.20;57.30
66328;DHT22;53133;52.862;6.602;2023-04-03T13:04:03;9.30;57.20
66328;DHT22;53133;52.862;6.602;2023-04-03T13:06:39;9.30;56.00
66328;DHT22;53133;52.862;6.602;2023-04-03T13:09:14;9.40;55.90
66328;DHT22;53133;52.862;6.602;2023-04-03T13:11:44;9.40;55.00
66328;DHT22;53133;52.862;6.602;2023-04-03T13:14:19;9.50;56.10
66328;DHT22;53133;52.862;6.602;2023-04-03T13:17:12;9.50;55.70
66328;DHT22;53133;52.862;6.602;2023-04-03T13:19:40;9.50;54.00
66328;DHT22;53133;52.862;6.602;2023-04-03T13:22:34;9.60;55.40
66328;DHT22;53133;52.862;6.602;2023-04-03T13:25:07;9.60;54.80
66328;DHT22;53133;52.862;6.602;2023-04-03T13:27:33;9.60;55.10
66328;DHT22;53133;52.862;6.602;2023-04-03T13:30:01;9.60;55.40
66328;DHT22;53133;52.862;6.602;2023-04-03T13:32:28;9.60;55.40
66328;DHT22;53133;52.862;6.602;2023-04-03T13:34:56;9.70;55.90
66328;DHT22;53133;52.862;6.602;2023-04-03T13:37:30;9.70;55.40
66328;DHT22;53133;52.862;6.602;2023-04-03T13:42:34;9.90;56.60
66328;DHT22;53133;52.862;6.602;2023-04-03T13:47:46;10.00;54.70
66328;DHT22;53133;52.862;6.602;2023-04-03T13:52:52;10.00;54.70
66328;DHT22;53133;52.862;6.602;2023-04-03T13:55:22;10.00;53.40
66328;DHT22;53133;52.862;6.602;2023-04-03T14:00:39;10.00;51.30
66328;DHT22;53133;52.862;6.602;2023-04-03T14:03:24;9.90;52.20
66328;DHT22;53133;52.862;6.602;2023-04-03T14:05:50;10.00;52.10
66328;DHT22;53133;52.862;6.602;2023-04-03T14:08:17;9.90;53.70
66328;DHT22;53133;52.862;6.602;2023-04-03T14:10:43;10.00;54.00
66328;DHT22;53133;52.862;6.602;2023-04-03T14:13:13;10.00;53.00
66328;DHT22;53133;52.862;6.602;2023-04-03T14:15:40;10.10;52.80
66328;DHT22;53133;52.862;6.602;2023-04-03T14:18:06;10.10;53.10
66328;DHT22;53133;52.862;6.602;2023-04-03T14:20:32;10.10;53.00
66328;DHT22;53133;52.862;6.602;2023-04-03T14:22:58;10.20;53.40
66328;DHT22;53133;52.862;6.602;2023-04-03T14:25:23;10.20;52.20
66328;DHT22;53133;52.862;6.602;2023-04-03T14:27:52;10.20;52.50
66328;DHT22;53133;52.862;6.602;2023-04-03T14:30:25;10.30;53.40
66328;DHT22;53133;52.862;6.602;2023-04-03T14:32:51;10.30;52.30
66328;DHT22;53133;52.862;6.602;2023-04-03T14:35:19;10.30;52.60
66328;DHT22;53133;52.862;6.602;2023-04-03T14:37:46;10.40;53.40
66328;DHT22;53133;52.862;6.602;2023-04-03T14:40:16;10.40;54.10
66328;DHT22;53133;52.862;6.602;2023-04-03T14:42:42;10.40;53.70
66328;DHT22;53133;52.862;6.602;2023-04-03T14:45:11;10.50;54.10
66328;DHT22;53133;52.862;6.602;2023-04-03T14:47:44;10.50;54.30
66328;DHT22;53133;52.862;6.602;2023-04-03T14:50:16;10.50;52.80
66328;DHT22;53133;52.862;6.602;2023-04-03T14:52:43;10.50;52.30
66328;DHT22;53133;52.862;6.602;2023-04-03T14:55:12;10.60;52.90
66328;DHT22;53133;52.862;6.602;2023-04-03T14:57:38;10.50;52.10
66328;DHT22;53133;52.862;6.602;2023-04-03T15:00:07;10.50;52.00
66328;DHT22;53133;52.862;6.602;2023-04-03T15:02:36;10.60;53.00
66328;DHT22;53133;52.862;6.602;2023-04-03T15:05:06;10.60;53.00
66328;DHT22;53133;52.862;6.602;2023-04-03T15:07:35;10.60;52.50
66328;DHT22;53133;52.862;6.602;2023-04-03T15:10:23;10.60;52.30
66328;DHT22;53133;52.862;6.602;2023-04-03T15:12:50;10.70;52.20
66328;DHT22;53133;52.862;6.602;2023-04-03T15:15:18;10.70;52.80
66328;DHT22;53133;52.862;6.602;2023-04-03T15:17:46;10.70;52.30
66328;DHT22;53133;52.862;6.602;2023-04-03T15:20:18;10.70;52.70
66328;DHT22;53133;52.862;6.602;2023-04-03T15:22:45;10.70;52.70
66328;DHT22;53133;52.862;6.602;2023-04-03T15:25:11;10.70;52.70
66328;DHT22;53133;52.862;6.602;2023-04-03T15:27:37;10.70;53.60
66328;DHT22;53133;52.862;6.602;2023-04-03T15:30:05;10.70;52.30
66328;DHT22;53133;52.862;6.602;2023-04-03T15:32:31;10.70;52.30
66328;DHT22;53133;52.862;6.602;2023-04-03T15:34:57;10.70;51.60
66328;DHT22;53133;52.862;6.602;2023-04-03T15:37:23;10.70;52.30
66328;DHT22;53133;52.862;6.602;2023-04-03T15:39:48;10.70;52.20
66328;DHT22;53133;52.862;6.602;2023-04-03T15:42:14;10.70;52.60
66328;DHT22;53133;52.862;6.602;2023-04-03T15:44:39;10.70;52.60
66328;DHT22;53133;52.862;6.602;2023-04-03T15:47:05;10.70;52.30
66328;DHT22;53133;52.862;6.602;2023-04-03T15:49:33;10.70;52.50
66328;DHT22;53133;52.862;6.602;2023-04-03T15:51:59;10.60;51.90
66328;DHT22;53133;52.862;6.602;2023-04-03T15:54:24;10.70;52.50
66328;DHT22;53133;52.862;6.602;2023-04-03T15:56:51;10.70;52.60
66328;DHT22;53133;52.862;6.602;2023-04-03T15:59:17;10.70;52.80
66328;DHT22;53133;52.862;6.602;2023-04-03T16:01:43;10.60;52.70
66328;DHT22;53133;52.862;6.602;2023-04-03T16:04:09;10.50;52.60
66328;DHT22;53133;52.862;6.602;2023-04-03T16:06:36;10.50;52.10
66328;DHT22;53133;52.862;6.602;2023-04-03T16:09:02;10.50;51.60
66328;DHT22;53133;52.862;6.602;2023-04-03T16:11:29;10.40;52.00
66328;DHT22;53133;52.862;6.602;2023-04-03T16:13:55;10.40;52.20
66328;DHT22;53133;52.862;6.602;2023-04-03T16:16:22;10.40;52.40
66328;DHT22;53133;52.862;6.602;2023-04-03T16:18:48;10.40;51.90
66328;DHT22;53133;52.862;6.602;2023-04-03T16:21:15;10.40;52.20
66328;DHT22;53133;52.862;6.602;2023-04-03T16:23:41;10.30;51.30
66328;DHT22;53133;52.862;6.602;2023-04-03T16:26:08;10.30;51.70
66328;DHT22;53133;52.862;6.602;2023-04-03T16:28:34;10.30;52.10
66328;DHT22;53133;52.862;6.602;2023-04-03T16:31:00;10.30;52.50
66328;DHT22;53133;52.862;6.602;2023-04-03T16:33:26;10.30;51.70
66328;DHT22;53133;52.862;6.602;2023-04-03T16:35:52;10.20;51.30
66328;DHT22;53133;52.862;6.602;2023-04-03T16:38:18;10.10;51.30
66328;DHT22;53133;52.862;6.602;2023-04-03T16:40:45;10.10;52.30
66328;DHT22;53133;52.862;6.602;2023-04-03T16:43:11;10.10;52.80
66328;DHT22;53133;52.862;6.602;2023-04-03T16:45:36;10.10;53.10
66328;DHT22;53133;52.862;6.602;2023-04-03T16:48:02;10.10;53.30
66328;DHT22;53133;52.862;6.602;2023-04-03T16:50:28;10.10;52.80
66328;DHT22;53133;52.862;6.602;2023-04-03T16:52:54;10.10;52.90
66328;DHT22;53133;52.862;6.602;2023-04-03T16:55:19;10.00;52.60
66328;DHT22;53133;52.862;6.602;2023-04-03T16:57:46;10.00;53.80
66328;DHT22;53133;52.862;6.602;2023-04-03T17:00:12;10.10;54.00
66328;DHT22;53133;52.862;6.602;2023-04-03T17:02:39;10.10;53.60
66328;DHT22;53133;52.862;6.602;2023-04-03T17:05:05;10.00;52.80
66328;DHT22;53133;52.862;6.602;2023-04-03T17:07:31;10.00;53.00
66328;DHT22;53133;52.862;6.602;2023-04-03T17:09:56;10.00;53.30
66328;DHT22;53133;52.862;6.602;2023-04-03T17:12:22;9.90;53.30
66328;DHT22;53133;52.862;6.602;2023-04-03T17:14:48;9.80;53.20
66328;DHT22;53133;52.862;6.602;2023-04-03T17:17:14;9.80;53.60
66328;DHT22;53133;52.862;6.602;2023-04-03T17:19:41;9.80;53.20
66328;DHT22;53133;52.862;6.602;2023-04-03T17:22:08;9.70;53.50
66328;DHT22;53133;52.862;6.602;2023-04-03T17:24:34;9.70;54.00
66328;DHT22;53133;52.862;6.602;2023-04-03T17:27:00;9.60;55.10
66328;DHT22;53133;52.862;6.602;2023-04-03T17:29:25;9.60;55.90
66328;DHT22;53133;52.862;6.602;2023-04-03T17:31:51;9.50;55.80
66328;DHT22;53133;52.862;6.602;2023-04-03T17:34:17;9.40;55.50
66328;DHT22;53133;52.862;6.602;2023-04-03T17:36:42;9.30;55.70
66328;DHT22;53133;52.862;6.602;2023-04-03T17:39:08;9.30;56.90
66328;DHT22;53133;52.862;6.602;2023-04-03T17:41:34;9.20;56.10
66328;DHT22;53133;52.862;6.602;2023-04-03T17:43:59;9.20;56.20